Time;durP1;ratioP1;P1;durP2;ratioP2;P2;SDS_P1;SDS_P2;PMS_P1;PMS_P2;Temp;Humidity;BMP_temperature;BMP_pressure;BME280_temperature;BME280_humidity;BME280_pressure;Samples;Min_cycle;Max_cycle;Signal;HPM_P1;HPM_P2
2023/05/24 00:01:47;;;;;;;16.48;11.98;;;;;;;13.89;56.03;97623.88;4893859;28;20909;-80
2023/05/24 00:04:13;;;;;;;16.08;11.85;;;;;;;13.81;56.64;97619.94;4908682;28;20205;-80
2023/05/24 00:06:40;;;;;;;16.83;12.10;;;;;;;13.84;56.40;97618.63;4908360;28;20380;-79
2023/05/24 00:09:06;;;;;;;17.77;11.48;;;;;;;13.85;56.27;97620.22;4891502;28;20199;-79
2023/05/24 00:11:31;;;;;;;17.48;12.23;;;;;;;13.81;56.38;97613.88;4891282;28;20140;-79
2023/05/24 00:13:57;;;;;;;14.27;11.23;;;;;;;13.87;56.69;97610.25;4909355;28;20261;-80
2023/05/24 00:16:22;;;;;;;14.18;10.52;;;;;;;13.81;56.23;97616.50;4908623;28;20321;-79
2023/05/24 00:18:48;;;;;;;15.25;10.68;;;;;;;13.88;56.54;97619.69;4894663;28;20210;-79
2023/05/24 00:21:14;;;;;;;16.38;11.43;;;;;;;13.83;56.14;97615.22;4890608;28;20210;-80
2023/05/24 00:23:40;;;;;;;15.52;10.95;;;;;;;13.76;56.55;97612.06;4909819;28;20205;-79
2023/05/24 00:26:07;;;;;;;15.27;10.27;;;;;;;13.70;56.09;97601.81;4907995;28;20217;-79
2023/05/24 00:28:32;;;;;;;16.27;10.30;;;;;;;13.67;56.11;97603.88;4877082;28;20111;-79
2023/05/24 00:30:58;;;;;;;14.68;10.93;;;;;;;13.67;56.38;97603.88;4892806;28;20182;-79
2023/05/24 00:33:23;;;;;;;13.65;10.52;;;;;;;13.59;56.67;97593.91;4892296;28;20172;-79
2023/05/24 00:35:55;;;;;;;14.70;9.65;;;;;;;13.65;55.94;97600.72;4893100;28;20225;-79
2023/05/24 00:38:27;;;;;;;15.45;9.18;;;;;;;13.67;56.09;97590.00;4910359;28;20668;-79
2023/05/24 00:40:55;;;;;;;13.60;9.70;;;;;;;13.56;56.54;97596.22;4890039;28;20291;-79
2023/05/24 00:43:20;;;;;;;16.00;10.25;;;;;;;13.54;56.60;97587.81;4908798;28;20568;-79
2023/05/24 00:45:46;;;;;;;14.93;9.90;;;;;;;13.53;56.49;97584.44;4912552;28;20279;-80
2023/05/24 00:48:12;;;;;;;12.52;9.77;;;;;;;13.52;56.47;97582.88;4926252;28;20234;-79
2023/05/24 00:50:38;;;;;;;13.50;9.15;;;;;;;13.47;56.41;97580.22;4888801;28;20226;-80
2023/05/24 00:53:04;;;;;;;14.80;10.13;;;;;;;13.35;56.99;97574.38;4890447;28;20288;-79
2023/05/24 00:55:30;;;;;;;13.50;8.32;;;;;;;13.31;56.14;97579.28;4892115;28;20936;-79
2023/05/24 00:57:59;;;;;;;12.10;8.73;;;;;;;13.29;57.44;97574.31;4895316;28;20205;-79
2023/05/24 01:00:25;;;;;;;18.30;8.93;;;;;;;13.21;56.70;97563.53;4891194;28;20191;-78
2023/05/24 01:05:32;;;;;;;13.27;8.02;;;;;;;13.17;56.67;97562.47;4886074;28;20306;-81
2023/05/24 01:08:33;;;;;;;12.00;7.75;;;;;;;13.15;56.99;97564.56;4874728;28;20409;-80
2023/05/24 01:11:25;;;;;;;13.60;8.77;;;;;;;13.14;57.83;97566.38;4902362;28;20198;-80
2023/05/24 01:13:57;;;;;;;15.20;8.82;;;;;;;12.87;58.26;97567.22;4870613;28;20194;-79
2023/05/24 01:16:25;;;;;;;14.30;8.82;;;;;;;13.12;57.28;97568.44;4855927;28;20309;-80
2023/05/24 01:18:56;;;;;;;14.73;8.35;;;;;;;13.07;57.58;97568.41;4870022;28;20464;-80
2023/05/24 01:21:37;;;;;;;12.30;8.88;;;;;;;12.83;58.11;97576.59;4891059;28;20275;-83
2023/05/24 01:24:12;;;;;;;15.32;9.00;;;;;;;12.91;57.95;97570.91;4875057;28;20202;-80
2023/05/24 01:27:03;;;;;;;12.48;8.45;;;;;;;12.81;58.13;97580.50;4905645;28;20195;-82
2023/05/24 01:29:30;;;;;;;13.20;8.27;;;;;;;12.76;58.24;97586.44;4868120;28;20168;-80
2023/05/24 01:31:55;;;;;;;11.55;7.97;;;;;;;12.80;57.61;97587.56;4904219;28;20336;-79
2023/05/24 01:34:21;;;;;;;13.50;8.02;;;;;;;12.79;57.55;97593.03;4856727;28;20203;-79
2023/05/24 01:36:46;;;;;;;13.35;8.80;;;;;;;12.86;57.00;97596.22;4867934;28;20282;-80
2023/05/24 01:39:12;;;;;;;14.15;8.25;;;;;;;12.54;58.20;97591.72;4871554;28;20198;-79
2023/05/24 01:41:53;;;;;;;11.77;8.48;;;;;;;12.73;57.55;97576.50;4904506;28;20298;-79
2023/05/24 01:44:28;;;;;;;12.00;7.25;;;;;;;12.74;57.96;97596.38;4892364;28;20221;-78
2023/05/24 01:47:01;;;;;;;12.52;8.00;;;;;;;12.79;57.71;97599.03;4892815;28;20273;-78
2023/05/24 01:49:29;;;;;;;12.05;8.23;;;;;;;12.89;57.32;97606.19;4896362;28;20244;-78
2023/05/24 01:52:04;;;;;;;15.70;8.00;;;;;;;12.82;57.49;97601.16;4878541;28;20210;-79
2023/05/24 01:54:32;;;;;;;12.70;8.93;;;;;;;12.74;58.02;97604.22;4895183;28;20285;-79
2023/05/24 01:56:58;;;;;;;13.82;8.70;;;;;;;12.64;57.84;97599.66;4911703;28;20159;-79
2023/05/24 01:59:25;;;;;;;15.02;8.95;;;;;;;12.68;58.15;97613.03;4874562;28;20455;-78
2023/05/24 02:01:50;;;;;;;14.23;8.60;;;;;;;12.59;58.41;97610.06;4876575;28;20755;-78
2023/05/24 02:04:17;;;;;;;12.73;8.00;;;;;;;12.61;58.77;97610.63;4868373;29;20168;-81
2023/05/24 02:06:42;;;;;;;11.70;9.05;;;;;;;12.47;59.00;97610.22;4850954;29;20043;-78
2023/05/24 02:09:07;;;;;;;14.40;9.38;;;;;;;12.45;58.92;97614.09;4879181;28;20198;-79
2023/05/24 02:11:33;;;;;;;12.95;8.20;;;;;;;12.43;58.97;97603.91;4874682;29;20278;-79
2023/05/24 02:13:58;;;;;;;13.23;8.95;;;;;;;12.37;58.71;97610.09;4846508;29;20361;-79
2023/05/24 02:16:25;;;;;;;12.95;8.48;;;;;;;12.31;59.35;97595.44;4887169;28;20285;-78
2023/05/24 02:18:51;;;;;;;12.20;7.38;;;;;;;12.35;58.78;97606.94;4862719;29;20588;-78
2023/05/24 02:21:16;;;;;;;13.38;7.68;;;;;;;12.31;58.65;97608.47;4889867;28;20275;-78
2023/05/24 02:23:42;;;;;;;11.98;7.90;;;;;;;12.33;59.59;97607.19;4867329;28;20283;-78
2023/05/24 02:26:10;;;;;;;10.48;7.57;;;;;;;12.33;59.50;97611.63;4881025;29;20243;-78
2023/05/24 02:28:36;;;;;;;13.13;7.57;;;;;;;12.29;58.53;97602.72;4874707;28;20394;-78
2023/05/24 02:31:01;;;;;;;13.32;7.72;;;;;;;12.28;59.38;97611.56;4842104;29;20291;-78
2023/05/24 02:33:28;;;;;;;10.25;6.50;;;;;;;12.30;59.35;97618.16;4875141;28;20717;-78
2023/05/24 02:35:55;;;;;;;9.95;7.10;;;;;;;12.28;59.08;97614.97;4858848;29;20189;-78
2023/05/24 02:38:21;;;;;;;10.10;6.90;;;;;;;12.35;58.91;97605.16;4876754;29;20435;-78
2023/05/24 02:40:46;;;;;;;10.70;7.38;;;;;;;12.30;58.63;97605.09;4859190;29;20180;-79
2023/05/24 02:43:12;;;;;;;10.68;6.55;;;;;;;12.33;58.19;97603.78;4883679;28;20260;-79
2023/05/24 02:45:37;;;;;;;12.57;7.78;;;;;;;12.34;58.93;97600.94;4889138;28;20346;-78
2023/05/24 02:48:02;;;;;;;9.40;6.38;;;;;;;12.33;59.02;97588.13;4871296;29;20090;-78
2023/05/24 02:50:28;;;;;;;11.63;6.85;;;;;;;12.28;58.83;97588.06;4856603;28;20244;-79
2023/05/24 02:52:53;;;;;;;8.25;5.50;;;;;;;12.35;58.52;97586.06;4849646;29;20334;-78
2023/05/24 02:55:19;;;;;;;11.20;6.07;;;;;;;12.31;58.52;97575.31;4869512;28;20195;-78
2023/05/24 02:57:46;;;;;;;10.52;5.60;;;;;;;12.28;58.29;97582.84;4882648;28;20169;-78
2023/05/24 03:00:13;;;;;;;11.38;6.63;;;;;;;12.31;58.38;97587.59;4870293;28;20383;-78
2023/05/24 03:02:39;;;;;;;10.65;5.53;;;;;;;12.31;58.13;97590.19;4856745;29;20207;-78
2023/05/24 03:05:08;;;;;;;9.70;5.65;;;;;;;12.32;58.34;97592.56;4869851;28;20346;-79
2023/05/24 03:07:34;;;;;;;11.40;6.28;;;;;;;12.35;58.06;97586.06;4860621;29;20226;-79
2023/05/24 03:09:59;;;;;;;10.63;5.57;;;;;;;12.31;58.30;97587.59;4855423;29;20119;-79
2023/05/24 03:12:25;;;;;;;9.10;5.20;;;;;;;12.28;58.39;97586.25;4855838;29;20495;-78
2023/05/24 03:14:50;;;;;;;8.60;5.10;;;;;;;12.14;58.50;97585.84;4850010;29;20219;-79
2023/05/24 03:17:16;;;;;;;8.90;5.50;;;;;;;12.10;58.54;97586.59;4871172;29;20380;-80
2023/05/24 03:19:41;;;;;;;10.88;5.57;;;;;;;12.17;58.28;97581.97;4873242;28;20197;-78
2023/05/24 03:22:07;;;;;;;9.48;5.28;;;;;;;12.25;58.88;97588.56;4856757;29;20503;-80
2023/05/24 03:24:33;;;;;;;12.65;5.70;;;;;;;12.28;58.04;97588.06;4857005;29;20285;-78
2023/05/24 03:26:58;;;;;;;10.80;5.60;;;;;;;12.25;58.68;97585.94;4857407;29;20193;-79
2023/05/24 03:29:24;;;;;;;11.88;5.80;;;;;;;12.32;58.02;97596.97;4839183;29;20215;-79
2023/05/24 03:31:49;;;;;;;9.68;5.05;;;;;;;12.26;58.57;97582.31;4857567;29;20225;-78
2023/05/24 03:34:15;;;;;;;9.13;4.43;;;;;;;12.16;57.82;97586.38;4850316;29;20216;-78
2023/05/24 03:36:41;;;;;;;11.82;4.90;;;;;;;12.21;58.11;97598.69;4855541;29;20205;-79
2023/05/24 03:39:06;;;;;;;8.25;5.13;;;;;;;12.26;57.98;97592.75;4889728;28;20198;-79
2023/05/24 03:41:32;;;;;;;10.70;5.38;;;;;;;12.10;57.83;97600.41;4871164;28;20585;-79
2023/05/24 03:43:58;;;;;;;11.15;5.53;;;;;;;12.16;58.43;97601.25;4856747;29;20214;-79
2023/05/24 03:46:23;;;;;;;8.63;5.07;;;;;;;12.09;58.14;97600.66;4875943;28;20329;-78
2023/05/24 03:48:49;;;;;;;9.05;4.55;;;;;;;12.21;58.08;97605.75;4851223;29;20451;-78
2023/05/24 03:51:14;;;;;;;7.93;4.28;;;;;;;12.08;58.39;97599.06;4857425;29;20190;-79
2023/05/24 03:53:39;;;;;;;7.35;4.38;;;;;;;12.18;58.05;97601.78;4858053;29;20248;-78
2023/05/24 03:56:05;;;;;;;9.32;4.43;;;;;;;12.13;58.53;97604.34;4870308;29;20373;-78
2023/05/24 03:58:30;;;;;;;12.57;5.20;;;;;;;12.19;57.95;97603.38;4858065;29;20161;-79
2023/05/24 04:00:56;;;;;;;7.57;4.43;;;;;;;12.21;57.68;97608.38;4886987;28;20283;-78
2023/05/24 04:03:21;;;;;;;10.05;4.85;;;;;;;12.02;58.42;97608.66;4856480;28;20246;-78
2023/05/24 04:05:47;;;;;;;11.90;5.38;;;;;;;12.06;58.35;97611.56;4892867;28;20312;-79
2023/05/24 04:08:13;;;;;;;9.38;4.93;;;;;;;11.84;59.07;97599.28;4899760;28;20391;-78
2023/05/24 04:10:40;;;;;;;12.50;5.15;;;;;;;12.02;58.65;97603.44;4908212;28;20344;-79
2023/05/24 04:13:05;;;;;;;9.43;4.72;;;;;;;12.09;58.50;97603.25;4877116;28;20224;-81
2023/05/24 04:15:31;;;;;;;11.52;4.22;;;;;;;12.10;58.23;97612.69;4892581;28;20313;-78
2023/05/24 04:17:57;;;;;;;7.97;4.68;;;;;;;12.33;58.55;97614.25;4862040;28;20211;-79
2023/05/24 04:20:24;;;;;;;9.95;4.85;;;;;;;12.20;57.88;97620.63;4907176;28;20219;-79
2023/05/24 04:22:50;;;;;;;9.65;4.95;;;;;;;11.96;58.70;97620.06;4891622;28;20214;-83
2023/05/24 04:25:16;;;;;;;10.50;4.65;;;;;;;11.91;58.77;97615.59;4895973;28;20334;-80
2023/05/24 04:27:41;;;;;;;8.68;4.47;;;;;;;12.09;58.74;97614.50;4889287;28;20299;-79
2023/05/24 04:30:08;;;;;;;7.13;4.80;;;;;;;12.09;58.61;97611.88;4905995;28;20400;-81
2023/05/24 04:32:33;;;;;;;14.68;6.00;;;;;;;12.13;58.28;97610.38;4874462;28;20707;-78
2023/05/24 04:35:01;;;;;;;9.65;5.28;;;;;;;12.17;58.06;97592.41;4891546;28;20186;-80
2023/05/24 04:37:28;;;;;;;11.85;4.95;;;;;;;12.38;57.21;97606.47;4911899;28;20219;-79
2023/05/24 04:39:54;;;;;;;10.35;4.50;;;;;;;12.34;57.63;97600.16;4883875;28;20314;-80
2023/05/24 04:42:20;;;;;;;8.35;4.15;;;;;;;12.32;57.33;97604.81;4862062;28;20530;-80
2023/05/24 04:44:45;;;;;;;6.20;3.78;;;;;;;12.38;57.40;97603.84;4892381;28;20366;-79
2023/05/24 04:47:11;;;;;;;10.18;4.80;;;;;;;12.47;57.23;97610.22;4909825;28;20164;-79
2023/05/24 04:49:38;;;;;;;10.05;4.00;;;;;;;12.48;57.30;97605.78;4876207;28;20331;-80
2023/05/24 04:52:04;;;;;;;7.50;3.80;;;;;;;12.45;56.90;97601.06;4885839;28;20108;-78
2023/05/24 04:54:29;;;;;;;8.73;4.85;;;;;;;12.45;56.93;97606.28;4889701;28;20207;-80
2023/05/24 04:56:55;;;;;;;7.05;4.28;;;;;;;12.55;56.57;97616.81;4877306;28;20183;-78
2023/05/24 04:59:20;;;;;;;9.50;4.50;;;;;;;12.58;57.13;97605.09;4892178;28;20440;-78
2023/05/24 05:01:46;;;;;;;9.95;4.38;;;;;;;12.51;56.45;97615.75;4868247;28;20342;-80
2023/05/24 05:04:11;;;;;;;5.90;3.75;;;;;;;12.72;55.83;97611.50;4859823;28;20189;-80
2023/05/24 05:06:38;;;;;;;11.18;3.83;;;;;;;12.60;56.26;97609.03;4887101;28;20195;-78
2023/05/24 05:09:12;;;;;;;6.85;3.90;;;;;;;12.73;56.28;97607.84;4869695;28;20402;-79
2023/05/24 05:11:37;;;;;;;8.63;3.75;;;;;;;12.43;56.49;97614.34;4893089;28;20350;-80
2023/05/24 05:14:03;;;;;;;9.60;4.72;;;;;;;12.49;56.45;97620.41;4892615;28;20319;-78
2023/05/24 05:16:28;;;;;;;8.48;4.07;;;;;;;12.51;55.85;97619.16;4875052;28;20307;-79
2023/05/24 05:18:54;;;;;;;8.10;3.75;;;;;;;12.32;56.37;97621.28;4874579;28;20034;-80
2023/05/24 05:21:19;;;;;;;9.40;4.10;;;;;;;12.41;56.38;97621.66;4911221;28;20042;-80
2023/05/24 05:23:45;;;;;;;7.03;3.75;;;;;;;12.35;56.58;97620.81;4911815;28;20300;-81
2023/05/24 05:26:10;;;;;;;7.68;3.40;;;;;;;12.46;56.64;97624.31;4891513;28;20202;-80
2023/05/24 05:28:36;;;;;;;10.02;4.25;;;;;;;12.36;56.62;97629.44;4876491;28;20280;-81
2023/05/24 05:31:02;;;;;;;10.07;4.43;;;;;;;12.42;56.76;97623.22;4892951;28;20337;-79
2023/05/24 05:33:27;;;;;;;8.18;3.55;;;;;;;12.50;56.24;97628.00;4894086;28;20190;-79
2023/05/24 05:35:52;;;;;;;8.40;3.90;;;;;;;12.78;56.04;97633.25;4863287;28;20337;-80
2023/05/24 05:38:18;;;;;;;9.88;4.07;;;;;;;12.90;55.24;97629.47;4894293;28;20528;-80
2023/05/24 05:40:43;;;;;;;7.28;3.35;;;;;;;13.16;55.20;97619.22;4884835;28;20289;-80
2023/05/24 05:43:09;;;;;;;12.07;3.58;;;;;;;12.90;54.56;97624.22;4897093;28;20285;-81
2023/05/24 05:45:34;;;;;;;6.90;3.03;;;;;;;13.22;54.72;97626.03;4899147;28;20045;-80
2023/05/24 05:48:00;;;;;;;8.90;3.53;;;;;;;13.39;53.26;97635.63;4863015;28;20691;-81
2023/05/24 05:50:25;;;;;;;10.45;3.58;;;;;;;13.48;53.31;97623.63;4899170;28;20030;-80
2023/05/24 05:52:51;;;;;;;10.05;3.22;;;;;;;13.36;53.43;97623.03;4875884;28;20329;-82
2023/05/24 05:55:16;;;;;;;10.70;3.35;;;;;;;13.22;53.85;97617.41;4895202;28;20284;-81
2023/05/24 05:57:42;;;;;;;8.48;3.55;;;;;;;13.44;53.49;97635.66;4894919;28;20285;-80
2023/05/24 06:00:08;;;;;;;10.73;3.60;;;;;;;13.53;53.21;97628.13;4895649;28;20248;-81
2023/05/24 06:02:34;;;;;;;9.93;3.47;;;;;;;13.57;51.84;97643.06;4896783;28;20171;-80
2023/05/24 06:04:59;;;;;;;5.05;2.88;;;;;;;13.86;51.73;97640.09;4892894;28;20247;-80
2023/05/24 06:07:24;;;;;;;6.43;3.15;;;;;;;13.65;51.94;97637.34;4894238;28;20179;-80
2023/05/24 06:09:50;;;;;;;10.25;3.28;;;;;;;13.66;51.91;97646.78;4911733;28;20310;-80
2023/05/24 06:12:15;;;;;;;7.75;2.80;;;;;;;13.85;51.26;97644.53;4903159;28;20561;-79
2023/05/24 06:14:41;;;;;;;5.55;2.70;;;;;;;13.91;51.38;97634.09;4895079;28;20202;-80
2023/05/24 06:17:06;;;;;;;6.88;3.15;;;;;;;13.76;51.41;97640.03;4878140;28;20284;-80
2023/05/24 06:19:32;;;;;;;6.50;3.05;;;;;;;13.80;51.82;97641.13;4896015;28;20394;-80
2023/05/24 06:21:58;;;;;;;9.93;3.30;;;;;;;13.56;52.21;97635.47;4907546;28;20199;-81
2023/05/24 06:24:23;;;;;;;7.95;2.85;;;;;;;13.56;51.98;97641.50;4894125;28;20203;-81
2023/05/24 06:26:50;;;;;;;8.50;3.30;;;;;;;13.33;51.55;97636.63;4875570;28;20501;-82
2023/05/24 06:29:18;;;;;;;6.10;3.22;;;;;;;13.77;52.02;97642.41;4912554;28;20315;-79
2023/05/24 06:31:46;;;;;;;10.18;3.42;;;;;;;13.89;51.31;97642.19;4914357;28;20194;-80
2023/05/24 06:34:12;;;;;;;6.88;2.70;;;;;;;14.04;51.67;97652.75;4885605;28;20220;-81
2023/05/24 06:36:41;;;;;;;14.27;3.80;;;;;;;14.03;50.83;97648.56;4891889;28;20203;-81
2023/05/24 06:39:14;;;;;;;9.73;3.03;;;;;;;14.32;50.15;97648.16;4863599;28;20290;-80
2023/05/24 06:41:42;;;;;;;8.63;3.25;;;;;;;14.16;49.94;97649.16;4896146;28;20116;-80
2023/05/24 06:44:07;;;;;;;7.93;3.00;;;;;;;14.48;49.60;97656.06;4895660;28;20164;-80
2023/05/24 06:46:33;;;;;;;8.50;2.80;;;;;;;14.12;50.17;97645.44;4893565;28;20234;-81
2023/05/24 06:48:58;;;;;;;8.25;3.08;;;;;;;13.96;50.55;97655.06;4891801;28;20329;-82
2023/05/24 06:51:24;;;;;;;9.60;3.40;;;;;;;14.31;50.30;97645.78;4904058;28;20356;-80
2023/05/24 06:53:49;;;;;;;7.90;2.80;;;;;;;14.60;49.39;97656.69;4876515;28;20196;-81
2023/05/24 06:56:15;;;;;;;6.55;2.80;;;;;;;14.77;48.70;97646.75;4881639;28;20595;-80
2023/05/24 06:58:41;;;;;;;5.75;3.00;;;;;;;15.03;47.92;97641.53;4882578;28;20206;-81
2023/05/24 07:01:07;;;;;;;6.30;2.90;;;;;;;15.11;47.70;97648.91;4881597;28;20168;-82
2023/05/24 07:03:52;;;;;;;9.23;3.75;;;;;;;15.52;46.85;97656.75;4886604;28;20223;-81
2023/05/24 07:06:18;;;;;;;9.05;2.72;;;;;;;15.38;46.97;97657.53;4901441;28;20164;-81
2023/05/24 07:08:43;;;;;;;6.35;2.53;;;;;;;15.02;46.25;97668.81;4879402;28;20588;-80
2023/05/24 07:11:09;;;;;;;9.35;2.92;;;;;;;14.85;46.62;97666.41;4895345;28;20394;-82
2023/05/24 07:13:34;;;;;;;6.68;2.60;;;;;;;15.01;46.51;97671.69;4879415;28;20293;-82
2023/05/24 07:16:00;;;;;;;10.43;3.30;;;;;;;14.75;47.24;97682.94;4863840;28;20625;-79
2023/05/24 07:18:25;;;;;;;7.85;3.10;;;;;;;14.84;46.69;97683.22;4895335;28;20278;-81
2023/05/24 07:20:50;;;;;;;7.03;2.70;;;;;;;15.02;45.80;97676.66;4895993;28;20208;-82
2023/05/24 07:23:16;;;;;;;8.50;2.75;;;;;;;15.66;45.52;97679.81;4897715;28;20211;-83
2023/05/24 07:25:41;;;;;;;8.15;2.95;;;;;;;15.22;45.52;97686.41;4878020;28;20570;-81
2023/05/24 07:28:07;;;;;;;5.82;3.35;;;;;;;15.06;45.66;97680.34;4887747;28;20322;-86
2023/05/24 07:30:33;;;;;;;9.07;2.80;;;;;;;15.40;45.77;97677.22;4866520;28;20256;-81
2023/05/24 07:32:59;;;;;;;10.07;2.78;;;;;;;15.49;44.57;97680.91;4881281;28;20202;-83
2023/05/24 07:35:25;;;;;;;7.63;2.70;;;;;;;15.88;44.38;97677.69;4862970;28;20176;-83
2023/05/24 07:37:50;;;;;;;6.85;2.40;;;;;;;16.35;43.58;97682.81;4882763;28;20200;-82
2023/05/24 07:40:16;;;;;;;4.15;1.85;;;;;;;16.86;42.88;97690.50;4868401;28;20185;-82
2023/05/24 07:42:41;;;;;;;8.95;3.05;;;;;;;16.84;42.01;97692.63;4864797;28;20645;-82
2023/05/24 07:45:09;;;;;;;6.68;2.58;;;;;;;16.41;42.63;97689.63;4892615;28;20293;-81
2023/05/24 07:47:35;;;;;;;6.70;2.22;;;;;;;16.37;42.71;97683.38;4892887;28;20362;-80
2023/05/24 07:50:00;;;;;;;7.55;2.40;;;;;;;16.43;43.29;97690.16;4880946;28;20246;-83
2023/05/24 07:52:26;;;;;;;9.07;2.58;;;;;;;16.64;41.49;97683.75;4879432;28;20367;-81
2023/05/24 07:54:52;;;;;;;5.25;2.42;;;;;;;16.62;41.75;97679.81;4878555;28;20183;-81
2023/05/24 07:57:18;;;;;;;8.63;2.75;;;;;;;16.61;42.15;97686.16;4895629;28;20210;-82
2023/05/24 07:59:44;;;;;;;5.93;2.70;;;;;;;16.67;41.07;97690.31;4896652;28;20270;-82
2023/05/24 08:02:10;;;;;;;5.07;2.15;;;;;;;16.91;41.10;97690.47;4882855;28;20357;-81
2023/05/24 08:04:36;;;;;;;5.50;1.88;;;;;;;16.98;40.68;97693.59;4877747;28;20211;-80
2023/05/24 08:07:04;;;;;;;6.57;2.30;;;;;;;16.78;40.30;97688.44;4879960;28;20222;-82
2023/05/24 08:09:32;;;;;;;6.07;2.22;;;;;;;16.53;40.98;97698.00;4878960;28;20164;-81
2023/05/24 08:11:58;;;;;;;6.47;2.20;;;;;;;16.89;40.35;97678.66;4881497;28;20176;-82
2023/05/24 08:14:23;;;;;;;5.53;2.58;;;;;;;17.00;40.03;97680.94;4894271;28;20190;-82
2023/05/24 08:16:48;;;;;;;8.98;2.33;;;;;;;17.40;40.02;97678.28;4878527;28;20283;-83
2023/05/24 08:19:14;;;;;;;5.90;1.63;;;;;;;17.23;37.85;97676.81;4859823;28;20202;-82
2023/05/24 08:21:41;;;;;;;4.70;1.80;;;;;;;17.35;37.61;97687.00;4880440;28;20334;-81
2023/05/24 08:24:07;;;;;;;6.63;1.95;;;;;;;16.96;38.99;97684.38;4878766;28;20195;-81
2023/05/24 08:26:32;;;;;;;4.35;1.88;;;;;;;17.04;38.96;97678.56;4913085;28;20203;-81
2023/05/24 08:28:57;;;;;;;5.60;2.35;;;;;;;17.54;37.40;97679.22;4882400;28;20218;-80
2023/05/24 08:31:23;;;;;;;5.82;2.20;;;;;;;17.66;37.22;97663.03;4876694;28;20509;-81
2023/05/24 08:33:49;;;;;;;7.18;2.10;;;;;;;17.28;38.05;97669.97;4893165;28;20293;-82
2023/05/24 08:36:16;;;;;;;4.45;1.83;;;;;;;17.76;38.12;97675.34;4890658;28;20527;-83
2023/05/24 08:38:42;;;;;;;7.93;2.92;;;;;;;17.79;36.52;97678.19;4895757;28;20398;-81
2023/05/24 08:41:10;;;;;;;4.43;2.00;;;;;;;18.00;35.65;97672.75;4879009;28;20187;-82
2023/05/24 08:43:37;;;;;;;4.32;1.60;;;;;;;18.28;36.18;97670.31;4879994;28;20172;-82
2023/05/24 08:46:04;;;;;;;4.38;2.30;;;;;;;18.74;36.57;97674.25;4891542;28;20243;-82
2023/05/24 08:48:30;;;;;;;3.15;2.15;;;;;;;18.99;35.82;97684.47;4911902;28;20147;-81
2023/05/24 08:50:56;;;;;;;6.10;2.25;;;;;;;18.83;35.60;97678.63;4878789;28;20282;-82
2023/05/24 08:53:22;;;;;;;4.20;2.30;;;;;;;18.62;35.92;97672.03;4895892;28;20472;-82
2023/05/24 08:55:51;;;;;;;7.85;2.40;;;;;;;18.53;35.91;97685.06;4878805;28;20269;-79
2023/05/24 08:58:17;;;;;;;7.35;2.25;;;;;;;18.56;35.34;97679.22;4897072;28;20647;-83
2023/05/24 09:00:43;;;;;;;5.68;1.80;;;;;;;19.35;35.73;97683.91;4915250;28;20218;-80
2023/05/24 09:03:09;;;;;;;7.40;3.08;;;;;;;19.47;35.27;97688.75;4895169;28;20636;-81
2023/05/24 09:05:36;;;;;;;5.22;1.80;;;;;;;19.22;33.87;97688.06;4911071;28;20104;-81
2023/05/24 09:08:02;;;;;;;5.50;1.75;;;;;;;19.54;34.45;97694.44;4882348;28;20189;-83
2023/05/24 09:10:27;;;;;;;5.88;2.15;;;;;;;19.59;33.53;97699.63;4896366;28;20281;-82
2023/05/24 09:12:57;;;;;;;5.43;2.08;;;;;;;19.43;35.09;97703.59;4891650;28;20300;-81
2023/05/24 09:15:23;;;;;;;5.40;2.00;;;;;;;19.52;34.60;97701.88;4878883;28;20373;-83
2023/05/24 09:17:48;;;;;;;5.45;2.55;;;;;;;19.73;34.64;97699.66;4888413;28;20179;-80
2023/05/24 09:20:14;;;;;;;5.38;2.30;;;;;;;19.82;34.04;97702.44;4905871;28;20340;-81
2023/05/24 09:22:41;;;;;;;5.82;2.20;;;;;;;19.73;34.90;97701.53;4902564;28;20259;-83
2023/05/24 09:25:07;;;;;;;4.30;1.95;;;;;;;20.06;32.27;97688.28;4892651;28;20173;-82
2023/05/24 09:27:36;;;;;;;4.95;2.00;;;;;;;19.91;33.61;97676.94;4907673;28;20311;-83
2023/05/24 09:30:04;;;;;;;4.13;1.80;;;;;;;19.70;32.60;97692.31;4910759;28;20107;-82
2023/05/24 09:32:30;;;;;;;6.50;1.90;;;;;;;19.78;32.74;97685.63;4944256;23;20436;-82
2023/05/24 09:34:57;;;;;;;6.03;2.35;;;;;;;20.38;33.62;97672.31;4907379;28;20269;-81
2023/05/24 09:37:26;;;;;;;6.22;2.53;;;;;;;20.51;32.39;97681.31;4894786;28;20324;-84
2023/05/24 09:39:52;;;;;;;4.43;1.75;;;;;;;20.67;33.01;97678.38;4884185;28;20171;-81
2023/05/24 09:42:21;;;;;;;4.10;2.33;;;;;;;20.81;31.32;97686.28;4900654;28;20496;-81
2023/05/24 09:44:47;;;;;;;5.95;2.55;;;;;;;20.06;32.23;97677.72;4924435;28;20297;-84
2023/05/24 09:47:14;;;;;;;5.10;1.90;;;;;;;20.49;31.26;97664.94;4901486;28;20258;-80
2023/05/24 09:49:40;;;;;;;5.07;2.13;;;;;;;20.48;32.28;97673.97;4926217;28;20039;-83
2023/05/24 09:52:05;;;;;;;5.50;1.83;;;;;;;20.33;32.21;97675.03;4900358;28;20220;-82
2023/05/24 09:54:32;;;;;;;4.05;1.77;;;;;;;20.18;31.92;97668.19;4895657;28;20443;-84
2023/05/24 09:57:03;;;;;;;5.72;2.17;;;;;;;20.51;31.86;97673.38;4919540;28;20213;-83
2023/05/24 09:59:33;;;;;;;5.07;2.05;;;;;;;20.49;32.00;97661.50;4917910;28;20217;-80
2023/05/24 10:02:09;;;;;;;5.68;2.30;;;;;;;20.37;32.50;97646.94;4916589;28;20276;-84
2023/05/24 10:04:34;;;;;;;4.60;2.60;;;;;;;19.45;32.26;97652.06;4887143;28;20179;-81
2023/05/24 10:07:01;;;;;;;3.85;1.95;;;;;;;20.15;33.89;97657.41;4889870;28;20215;-86
2023/05/24 10:09:32;;;;;;;4.70;1.88;;;;;;;20.13;33.40;97659.59;4880810;28;20175;-84
2023/05/24 10:12:01;;;;;;;4.93;1.75;;;;;;;21.02;31.66;97652.94;4907284;28;20255;-81
2023/05/24 10:14:28;;;;;;;5.65;2.00;;;;;;;21.44;30.43;97655.41;4893731;28;20358;-81
2023/05/24 10:16:53;;;;;;;5.00;2.35;;;;;;;21.69;29.99;97646.84;4899604;28;20247;-82
2023/05/24 10:19:20;;;;;;;5.38;2.10;;;;;;;21.73;30.93;97643.56;4881172;28;20258;-82
2023/05/24 10:21:46;;;;;;;3.92;1.75;;;;;;;21.70;30.04;97645.75;4880023;28;20305;-81
2023/05/24 10:24:12;;;;;;;3.92;2.10;;;;;;;22.12;29.38;97642.75;4918685;28;20285;-78
2023/05/24 10:26:38;;;;;;;3.78;1.70;;;;;;;22.15;30.96;97642.16;4922049;28;20265;-81
2023/05/24 10:29:07;;;;;;;4.85;2.38;;;;;;;22.10;30.47;97650.25;4897368;28;20297;-82
2023/05/24 10:31:35;;;;;;;4.68;1.98;;;;;;;22.26;30.53;97645.31;4890010;28;20568;-82
2023/05/24 10:34:02;;;;;;;3.88;1.83;;;;;;;22.08;30.36;97639.16;4895246;28;20221;-84
2023/05/24 10:36:29;;;;;;;5.20;2.28;;;;;;;20.99;30.22;97647.47;4885432;28;20214;-84
2023/05/24 10:38:55;;;;;;;2.83;1.42;;;;;;;21.05;30.41;97641.00;4897229;28;20541;-85
2023/05/24 10:41:38;;;;;;;4.05;1.77;;;;;;;21.33;29.95;97628.38;4909850;28;20442;-84
2023/05/24 10:44:10;;;;;;;3.55;2.10;;;;;;;21.59;30.51;97646.31;4904815;28;20069;-80
2023/05/24 10:46:36;;;;;;;5.00;1.80;;;;;;;21.54;30.21;97646.44;4891417;28;20360;-83
2023/05/24 10:49:04;;;;;;;4.30;1.85;;;;;;;20.88;29.96;97646.94;4884136;28;20238;-82
2023/05/24 10:51:37;;;;;;;4.47;1.98;;;;;;;20.20;31.42;97630.88;4882598;28;20217;-81
2023/05/24 10:54:18;;;;;;;4.57;1.40;;;;;;;20.71;30.77;97643.06;4883351;28;20310;-82
2023/05/24 10:56:46;;;;;;;3.58;1.67;;;;;;;20.39;29.95;97639.50;4898788;28;20748;-81
2023/05/24 10:59:22;;;;;;;3.65;1.45;;;;;;;20.14;30.72;97642.66;4900863;28;20133;-86
2023/05/24 11:01:59;;;;;;;5.05;1.48;;;;;;;20.95;31.99;97632.19;4895235;28;20038;-83
2023/05/24 11:04:26;;;;;;;3.03;1.50;;;;;;;21.38;30.76;97633.53;4892490;28;20812;-85
2023/05/24 11:07:02;;;;;;;4.10;1.77;;;;;;;20.47;30.70;97645.16;4895880;28;20151;-86
2023/05/24 11:09:28;;;;;;;3.75;1.80;;;;;;;20.63;31.27;97637.69;4906199;28;20053;-83
2023/05/24 11:11:56;;;;;;;3.33;1.70;;;;;;;21.49;32.94;97632.25;4906509;28;20345;-85
2023/05/24 11:14:24;;;;;;;3.90;1.95;;;;;;;21.32;31.92;97640.06;4895250;28;20034;-86
2023/05/24 11:16:50;;;;;;;5.38;1.70;;;;;;;21.24;31.50;97640.81;4892284;28;20031;-81
2023/05/24 11:19:32;;;;;;;4.00;1.77;;;;;;;21.53;29.93;97636.94;4885327;28;20093;-82
2023/05/24 11:21:58;;;;;;;4.95;2.10;;;;;;;21.03;31.41;97640.50;4902017;28;20030;-86
2023/05/24 11:24:25;;;;;;;3.92;1.90;;;;;;;20.70;32.07;97624.81;4899374;28;20037;-81
2023/05/24 11:26:55;;;;;;;5.40;1.75;;;;;;;20.43;32.00;97633.63;4923483;28;20037;-82
2023/05/24 11:29:22;;;;;;;2.88;1.80;;;;;;;20.58;31.30;97643.88;4892024;28;20034;-82
2023/05/24 11:31:49;;;;;;;5.63;1.92;;;;;;;20.30;31.72;97635.19;4904213;28;20042;-86